WSSS/SIN METAR and TAF weather

Enter ICAO airport designator
Station Type Date Time Source
WSSS METAR 2020/01/20 22:00 UTC NOAA

WSSS 202200Z 03006KT 320V080 8000 FEW015 BKN150 27/25 Q1012 NOSIG


Station Type Date Time Source
WSSS Decoded METAR 2020/01/20 22:00 UTC NOAA

Singapore / Changi Airport, Singapore (WSSS) 01-22N 103-59E 16M
Jan 20, 2020 - 05:00 PM EST / 2020.01.20 2200 UTC
Wind: from the NNE (030 degrees) at 7 MPH (6 KT) (direction variable):0
Visibility: 4 mile(s):0
Sky conditions: mostly cloudy
Temperature: 80 F (27 C)
Dew Point: 77 F (25 C)
Relative Humidity: 88%
Pressure (altimeter): 29.88 in. Hg (1012 hPa)
ob: WSSS 202200Z 03006KT 320V080 8000 FEW015 BKN150 27/25 Q1012 NOSIG
cycle: 22

Station Type Date Time Source
WSSS TAF 2020/01/20 18:20 UTC NOAA

TAF WSSS 201700Z 2018/2200 03011KT 9999 FEW015 SCT020
TEMPO 2018/2019 3000 TSRA FEW012CB BKN015

Example: see airport list